createdAt,value
2023-01-02T00:00:35.391Z,2.47
2023-01-02T00:03:02.384Z,2.65
2023-01-02T00:05:29.115Z,2.05
2023-01-02T00:07:55.879Z,2.38
2023-01-02T00:10:22.729Z,3.10
2023-01-02T00:12:49.840Z,2.08
2023-01-02T00:15:16.577Z,2.40
2023-01-02T00:17:43.252Z,1.95
2023-01-02T00:20:10.222Z,2.20
2023-01-02T00:22:37.060Z,2.28
2023-01-02T00:25:04.098Z,2.80
2023-01-02T00:27:30.835Z,1.90
2023-01-02T00:29:58.152Z,2.72
2023-01-02T00:32:24.836Z,2.17
2023-01-02T00:34:51.520Z,2.75
2023-01-02T00:37:18.174Z,2.28
2023-01-02T00:39:44.827Z,2.70
2023-01-02T00:42:11.529Z,1.88
2023-01-02T00:44:38.347Z,2.30
2023-01-02T00:47:05.142Z,2.35
2023-01-02T00:49:32.005Z,2.33
2023-01-02T00:51:59.236Z,1.90
2023-01-02T00:54:25.966Z,2.20
2023-01-02T00:56:53.080Z,2.33
2023-01-02T00:59:19.933Z,2.30
2023-01-02T01:01:46.805Z,2.33
2023-01-02T01:04:14.994Z,3.53
2023-01-02T01:06:41.796Z,3.00
2023-01-02T01:09:08.465Z,2.70
2023-01-02T01:11:35.216Z,2.38
2023-01-02T01:14:01.936Z,2.13
2023-01-02T01:16:28.902Z,2.30
2023-01-02T01:18:56.807Z,2.42
2023-01-02T01:21:23.875Z,2.40
2023-01-02T01:23:55.442Z,2.28
2023-01-02T01:28:55.368Z,2.35
2023-01-02T01:31:23.450Z,2.17
2023-01-02T01:33:50.686Z,2.30
2023-01-02T01:36:20.719Z,2.65
2023-01-02T01:38:48.537Z,1.92
2023-01-02T01:41:17.954Z,2.38
2023-01-02T01:43:52.123Z,2.15
2023-01-02T01:46:40.593Z,1.98
2023-01-02T01:49:12.882Z,2.13
2023-01-02T01:51:59.204Z,2.10
2023-01-02T01:54:36.946Z,1.77
2023-01-02T01:57:19.867Z,1.92
2023-01-02T01:59:47.054Z,2.55
2023-01-02T02:02:14.239Z,2.17
2023-01-02T02:04:43.934Z,2.25
2023-01-02T02:07:10.858Z,2.05
2023-01-02T02:09:42.662Z,1.77
2023-01-02T02:12:10.204Z,2.17
2023-01-02T02:14:37.026Z,2.08
2023-01-02T02:17:33.710Z,2.25
2023-01-02T02:20:28.742Z,1.30
2023-01-02T02:23:49.824Z,2.08
2023-01-02T02:26:34.925Z,2.10
2023-01-02T02:29:33.860Z,1.83
2023-01-02T02:32:20.779Z,2.45
2023-01-02T02:34:59.056Z,1.98
2023-01-02T02:37:53.631Z,2.03
2023-01-02T02:40:58.144Z,1.98
2023-01-02T02:44:04.943Z,1.98
2023-01-02T02:46:34.862Z,2.13
2023-01-02T02:49:04.818Z,1.83
2023-01-02T02:51:50.172Z,1.73
2023-01-02T02:54:27.210Z,2.10
2023-01-02T02:56:55.263Z,2.03
2023-01-02T02:59:23.451Z,1.77
2023-01-02T03:01:50.800Z,1.70
2023-01-02T03:04:19.882Z,2.38
2023-01-02T03:07:06.568Z,2.05
2023-01-02T03:09:38.508Z,2.00
2023-01-02T03:12:12.109Z,1.48
2023-01-02T03:15:02.486Z,2.45
2023-01-02T03:18:04.789Z,1.98
2023-01-02T03:20:44.258Z,2.30
2023-01-02T03:23:20.648Z,2.25
2023-01-02T03:25:48.177Z,1.90
2023-01-02T03:28:17.868Z,1.75
2023-01-02T03:30:48.031Z,1.65
2023-01-02T03:33:18.856Z,2.10
2023-01-02T03:35:50.687Z,2.25
2023-01-02T03:38:27.384Z,2.03
2023-01-02T03:41:09.185Z,1.80
2023-01-02T03:46:09.385Z,2.03
2023-01-02T03:48:45.270Z,1.98
2023-01-02T03:51:12.468Z,1.90
2023-01-02T03:53:41.216Z,2.15
2023-01-02T03:56:24.929Z,1.63
2023-01-02T03:59:08.974Z,2.00
2023-01-02T04:02:12.593Z,2.13
2023-01-02T04:04:51.524Z,2.28
2023-01-02T04:07:44.886Z,2.05
2023-01-02T04:10:14.287Z,1.83
2023-01-02T04:12:44.422Z,1.70
2023-01-02T04:15:17.166Z,1.70
2023-01-02T04:18:11.987Z,2.08
2023-01-02T04:20:42.936Z,2.47
2023-01-02T04:23:16.689Z,2.47
2023-01-02T04:25:47.874Z,2.00
2023-01-02T04:28:24.946Z,1.63
2023-01-02T04:30:57.615Z,2.33
2023-01-02T04:33:25.708Z,2.35
2023-01-02T04:35:52.795Z,2.17
2023-01-02T04:38:19.538Z,2.30
2023-01-02T04:40:46.275Z,2.30
2023-01-02T04:43:20.937Z,1.95
2023-01-02T04:45:51.014Z,2.28
2023-01-02T04:48:17.950Z,1.85
2023-01-02T04:50:45.472Z,1.67
2023-01-02T04:53:12.263Z,2.22
2023-01-02T04:55:39.068Z,1.75
2023-01-02T04:58:05.902Z,1.67
2023-01-02T05:00:33.230Z,1.10
2023-01-02T05:03:01.690Z,1.58
2023-01-02T05:05:28.676Z,1.55
2023-01-02T05:07:59.034Z,2.00
2023-01-02T05:10:25.877Z,2.33
2023-01-02T05:12:52.533Z,2.65
2023-01-02T05:15:19.289Z,1.92
2023-01-02T05:17:45.950Z,1.83
2023-01-02T05:20:13.625Z,1.83
2023-01-02T05:23:00.949Z,1.63
2023-01-02T05:25:31.306Z,2.10
2023-01-02T05:27:58.021Z,1.90
2023-01-02T05:30:25.510Z,1.80
2023-01-02T05:32:53.411Z,1.45
2023-01-02T05:35:20.360Z,1.88
2023-01-02T05:37:47.229Z,1.60
2023-01-02T05:40:14.017Z,1.95
2023-01-02T05:42:40.780Z,2.53
2023-01-02T05:45:08.221Z,1.58
2023-01-02T05:47:34.912Z,1.40
2023-01-02T05:50:03.036Z,1.92
2023-01-02T05:52:29.724Z,1.40
2023-01-02T05:54:56.451Z,1.60
2023-01-02T05:57:24.658Z,1.92
2023-01-02T05:59:51.490Z,2.03
2023-01-02T06:02:18.503Z,1.33
2023-01-02T06:04:45.204Z,1.40
2023-01-02T06:07:11.962Z,1.52
2023-01-02T06:09:38.628Z,1.45
2023-01-02T06:12:05.493Z,1.95
2023-01-02T06:14:32.184Z,1.85
2023-01-02T06:16:58.845Z,1.80
2023-01-02T06:19:25.634Z,1.90
2023-01-02T06:21:52.361Z,1.20
2023-01-02T06:24:19.541Z,2.10
2023-01-02T06:26:46.208Z,1.73
2023-01-02T06:29:13.067Z,2.00
2023-01-02T06:31:40.093Z,2.22
2023-01-02T06:34:09.916Z,2.13
2023-01-02T06:36:36.608Z,1.77
2023-01-02T06:39:04.749Z,1.88
2023-01-02T06:41:32.071Z,1.75
2023-01-02T06:43:59.147Z,2.10
2023-01-02T06:46:25.878Z,2.20
2023-01-02T06:48:52.910Z,1.75
2023-01-02T06:51:22.652Z,2.05
2023-01-02T06:53:50.050Z,2.40
2023-01-02T06:56:18.862Z,2.40
2023-01-02T06:58:45.765Z,1.77
2023-01-02T07:01:21.429Z,1.58
2023-01-02T07:03:49.060Z,2.53
2023-01-02T07:06:21.571Z,2.13
2023-01-02T07:08:48.789Z,1.70
2023-01-02T07:11:18.293Z,1.65
2023-01-02T07:13:46.903Z,2.45
2023-01-02T07:16:15.715Z,2.13
2023-01-02T07:18:42.814Z,2.15
2023-01-02T07:21:11.137Z,2.20
2023-01-02T07:23:38.267Z,2.33
2023-01-02T07:26:06.367Z,2.13
2023-01-02T07:28:34.457Z,2.60
2023-01-02T07:31:03.970Z,2.35
2023-01-02T07:33:31.626Z,2.42
2023-01-02T07:35:59.447Z,2.20
2023-01-02T07:38:26.514Z,1.88
2023-01-02T07:40:53.255Z,1.38
2023-01-02T07:43:21.352Z,1.85
2023-01-02T07:45:50.694Z,2.08
2023-01-02T07:48:18.572Z,1.58
2023-01-02T07:50:45.720Z,3.47
2023-01-02T07:53:12.504Z,3.17
2023-01-02T07:55:39.189Z,3.15
2023-01-02T07:58:07.524Z,1.98
2023-01-02T08:00:34.180Z,2.42
2023-01-02T08:03:01.315Z,2.63
2023-01-02T08:05:28.041Z,2.33
2023-01-02T08:07:54.721Z,2.20
2023-01-02T08:10:21.492Z,2.75
2023-01-02T08:12:48.215Z,2.88
2023-01-02T08:15:14.967Z,2.50
2023-01-02T08:17:41.691Z,2.25
2023-01-02T08:20:09.356Z,2.40
2023-01-02T08:22:36.374Z,2.58
2023-01-02T08:25:03.712Z,1.92
2023-01-02T08:27:30.394Z,1.80
2023-01-02T08:29:57.019Z,2.00
2023-01-02T08:32:23.801Z,1.77
2023-01-02T08:34:50.560Z,2.30
2023-01-02T08:37:17.245Z,1.60
2023-01-02T08:39:43.921Z,1.73
2023-01-02T08:42:10.763Z,2.00
2023-01-02T08:44:38.207Z,1.92
2023-01-02T08:47:05.650Z,1.88
2023-01-02T08:49:32.472Z,1.80
2023-01-02T08:51:59.178Z,1.60
2023-01-02T08:54:25.894Z,1.17
2023-01-02T08:56:52.564Z,1.73
2023-01-02T08:59:19.821Z,1.27
2023-01-02T09:01:46.841Z,1.50
2023-01-02T09:04:13.871Z,1.40
2023-01-02T09:06:41.911Z,1.40
2023-01-02T09:09:12.393Z,1.58
2023-01-02T09:11:49.964Z,1.42
2023-01-02T09:14:18.224Z,1.00
2023-01-02T09:16:44.916Z,1.00
2023-01-02T09:19:12.004Z,1.05
2023-01-02T09:21:39.364Z,1.02
2023-01-02T09:24:06.810Z,1.13
2023-01-02T09:26:33.822Z,1.50
2023-01-02T09:29:00.780Z,1.20
2023-01-02T09:31:27.916Z,1.10
2023-01-02T09:33:55.216Z,1.55
2023-01-02T09:36:22.681Z,0.90
2023-01-02T09:38:57.433Z,1.02
2023-01-02T09:41:32.526Z,1.23
2023-01-02T09:44:31.896Z,1.60
2023-01-02T09:47:00.594Z,1.20
2023-01-02T09:49:31.254Z,1.40
2023-01-02T09:51:58.399Z,1.50
2023-01-02T09:54:28.835Z,1.10
2023-01-02T09:57:15.480Z,1.15
2023-01-02T09:59:57.141Z,1.20
2023-01-02T10:03:04.231Z,0.70
2023-01-02T10:06:11.875Z,1.23
2023-01-02T10:09:08.617Z,1.02
2023-01-02T10:11:53.319Z,1.08
2023-01-02T10:14:53.795Z,1.30
2023-01-02T10:17:20.889Z,1.30
2023-01-02T10:20:16.624Z,1.05
2023-01-02T10:22:50.932Z,1.38
2023-01-02T10:25:23.052Z,1.15
2023-01-02T10:27:56.632Z,1.27
2023-01-02T10:30:29.970Z,0.88
2023-01-02T10:33:18.728Z,1.23
2023-01-02T10:36:01.440Z,1.85
2023-01-02T10:38:38.062Z,0.98
2023-01-02T10:41:05.653Z,0.90
2023-01-02T10:43:34.925Z,1.55
2023-01-02T10:46:02.931Z,1.30
2023-01-02T10:48:33.593Z,1.20
2023-01-02T10:51:07.334Z,1.50
2023-01-02T10:53:37.144Z,0.90
2023-01-02T10:56:14.225Z,0.98
2023-01-02T10:58:47.207Z,1.17
2023-01-02T11:01:19.115Z,0.88
2023-01-02T11:04:09.970Z,0.75
2023-01-02T11:06:50.894Z,0.85
2023-01-02T11:09:23.993Z,0.70
2023-01-02T11:11:58.975Z,0.75
2023-01-02T11:14:34.290Z,0.73
2023-01-02T11:17:17.179Z,0.85
2023-01-02T11:19:48.436Z,0.70
2023-01-02T11:22:18.404Z,1.15
2023-01-02T11:25:10.296Z,0.90
2023-01-02T11:30:09.375Z,0.85
2023-01-02T11:32:39.775Z,0.77
2023-01-02T11:35:31.882Z,0.85
2023-01-02T11:38:01.012Z,0.88
2023-01-02T11:40:30.709Z,0.60
2023-01-02T11:43:21.823Z,0.85
2023-01-02T11:45:49.070Z,0.88
2023-01-02T11:48:21.242Z,0.80
2023-01-02T11:50:49.724Z,0.85
2023-01-02T11:53:26.997Z,0.60
2023-01-02T11:56:12.599Z,0.90
2023-01-02T11:59:02.370Z,0.90
2023-01-02T12:01:57.729Z,1.10
2023-01-02T12:04:24.786Z,1.02
2023-01-02T12:07:13.681Z,0.88
2023-01-02T12:10:16.900Z,1.02
2023-01-02T12:13:13.630Z,0.80
2023-01-02T12:15:45.835Z,0.77
2023-01-02T12:18:41.703Z,0.60
2023-01-02T12:21:25.549Z,0.73
2023-01-02T12:24:13.734Z,1.20
2023-01-02T12:27:08.133Z,0.95
2023-01-02T12:30:08.809Z,0.60
2023-01-02T12:32:49.404Z,0.30
2023-01-02T12:35:32.816Z,0.68
2023-01-02T12:38:03.636Z,0.52
2023-01-02T12:40:42.018Z,0.90
2023-01-02T12:43:45.974Z,0.40
2023-01-02T12:46:43.548Z,0.77
2023-01-02T13:21:41.371Z,0.60
2023-01-02T13:24:18.294Z,0.60
2023-01-02T13:26:45.471Z,0.60
2023-01-02T13:29:31.920Z,0.90
2023-01-02T13:32:03.501Z,1.30
2023-01-02T13:34:49.155Z,0.70
2023-01-02T13:37:24.592Z,0.90
2023-01-02T13:39:58.823Z,0.90
2023-01-02T13:42:53.736Z,0.50
2023-01-02T13:47:25.963Z,0.60
2023-01-02T13:49:00.100Z,0.50
2023-01-02T13:51:33.246Z,0.70
2023-01-02T13:54:04.762Z,0.88
2023-01-02T13:59:42.788Z,0.70
2023-01-02T14:05:20.918Z,0.95
2023-01-02T14:08:38.832Z,1.00
2023-01-02T14:11:59.824Z,0.88
2023-01-02T14:14:18.090Z,0.73
2023-01-02T14:17:12.887Z,1.02
2023-01-02T14:19:58.406Z,0.75
2023-01-02T14:22:48.862Z,0.82
2023-01-02T14:25:51.986Z,0.80
2023-01-02T14:28:53.647Z,0.82
2023-01-02T14:31:36.152Z,0.95
2023-01-02T14:34:03.387Z,0.70
2023-01-02T14:36:42.989Z,1.00
2023-01-02T14:39:33.511Z,0.88
2023-01-02T14:42:43.837Z,1.00
2023-01-02T14:45:17.689Z,0.95
2023-01-02T14:47:52.832Z,0.93
2023-01-02T14:50:24.905Z,1.20
2023-01-02T14:53:18.067Z,1.10
2023-01-02T14:55:47.016Z,1.02
2023-01-02T14:58:39.946Z,1.30
2023-01-02T15:01:07.689Z,1.05
2023-01-02T15:03:40.882Z,1.10
2023-01-02T15:06:28.001Z,1.40
2023-01-02T15:09:04.846Z,1.45
2023-01-02T15:11:50.467Z,0.90
2023-01-02T15:14:23.566Z,1.50
2023-01-02T15:16:58.945Z,1.58
2023-01-02T15:19:29.382Z,1.23
2023-01-02T15:21:56.286Z,1.17
2023-01-02T15:24:30.294Z,1.75
2023-01-02T15:27:22.521Z,1.42
2023-01-02T15:29:52.497Z,1.20
2023-01-02T15:32:31.952Z,1.10
2023-01-02T15:35:21.058Z,1.65
2023-01-02T15:37:49.666Z,1.27
2023-01-02T15:40:28.507Z,1.17
2023-01-02T15:43:18.200Z,1.17
2023-01-02T15:45:51.570Z,1.08
2023-01-02T15:48:27.417Z,1.23
2023-01-02T15:50:57.063Z,1.45
2023-01-02T15:53:34.682Z,1.38
2023-01-02T15:56:01.691Z,1.30
2023-01-02T15:58:30.828Z,1.20
2023-01-02T16:01:24.813Z,1.10
2023-01-02T16:04:02.253Z,1.02
2023-01-02T16:06:38.437Z,1.42
2023-01-02T16:09:07.842Z,1.20
2023-01-02T16:11:59.290Z,1.45
2023-01-02T16:14:46.901Z,1.67
2023-01-02T16:17:26.416Z,1.58
2023-01-02T16:20:00.538Z,1.77
2023-01-02T16:22:30.980Z,1.10
2023-01-02T16:25:06.622Z,1.37
2023-01-02T16:27:54.919Z,1.15
2023-01-02T16:30:42.531Z,1.08
2023-01-02T16:33:27.440Z,1.60
2023-01-02T16:36:00.582Z,1.60
2023-01-02T16:38:29.111Z,1.40
2023-01-02T16:41:04.633Z,1.73
2023-01-02T16:43:36.718Z,1.55
2023-01-02T16:46:13.695Z,1.33
2023-01-02T16:48:42.227Z,1.60
2023-01-02T16:51:08.942Z,1.25
2023-01-02T16:53:35.643Z,1.13
2023-01-02T16:56:02.344Z,1.00
2023-01-02T16:58:29.846Z,0.80
2023-01-02T17:00:56.945Z,0.38
2023-01-02T17:03:27.523Z,0.50
2023-01-02T17:06:03.026Z,0.20
2023-01-02T17:08:33.084Z,0.17
2023-01-02T17:11:00.590Z,0.30
2023-01-02T17:13:28.241Z,0.30
2023-01-02T17:15:55.664Z,0.20
2023-01-02T17:18:23.246Z,0.35
2023-01-02T17:20:51.420Z,0.20
2023-01-02T17:23:19.482Z,0.50
2023-01-02T17:25:46.687Z,0.40
2023-01-02T17:28:14.192Z,0.30
2023-01-02T17:30:42.698Z,0.30
2023-01-02T17:33:09.575Z,0.45
2023-01-02T17:35:36.729Z,0.80
2023-01-02T17:38:04.055Z,0.40
2023-01-02T17:40:31.305Z,0.50
2023-01-02T17:42:58.299Z,0.35
2023-01-02T17:45:25.230Z,0.52
2023-01-02T17:48:07.423Z,0.63
2023-01-02T17:50:37.708Z,0.30
2023-01-02T17:53:07.933Z,0.50
2023-01-02T17:55:35.050Z,0.30
2023-01-02T17:58:02.511Z,0.35
2023-01-02T18:00:29.426Z,0.35
2023-01-02T18:02:56.260Z,0.20
2023-01-02T18:05:23.176Z,0.68
2023-01-02T18:07:50.083Z,0.28
2023-01-02T18:10:20.452Z,0.22
2023-01-02T18:12:49.464Z,0.10
2023-01-02T18:15:19.493Z,0.30
2023-01-02T18:17:46.273Z,0.30
2023-01-02T18:20:19.416Z,0.30
2023-01-02T18:22:50.176Z,0.57
2023-01-02T18:25:24.399Z,0.20
2023-01-02T18:28:00.466Z,0.10
2023-01-02T18:30:27.714Z,0.22
2023-01-02T18:33:15.322Z,0.20
2023-01-02T18:35:59.070Z,0.22
2023-01-02T18:38:35.616Z,0.20
2023-01-02T18:41:19.079Z,0.20
2023-01-02T18:43:46.363Z,0.28
2023-01-02T18:46:26.456Z,0.30
2023-01-02T18:49:27.180Z,0.20
2023-01-02T18:52:22.462Z,0.30
2023-01-02T18:55:12.371Z,0.22
2023-01-02T18:57:45.305Z,0.20
2023-01-02T19:00:28.333Z,0.28
2023-01-02T19:03:00.290Z,0.30
2023-01-02T19:05:32.163Z,0.20
2023-01-02T19:08:07.947Z,0.25
2023-01-02T19:10:39.869Z,0.40
2023-01-02T19:13:34.385Z,0.40
2023-01-02T19:16:20.487Z,0.50
2023-01-02T19:18:50.115Z,0.57
2023-01-02T19:21:29.223Z,0.47
2023-01-02T19:23:58.172Z,0.63
2023-01-02T19:26:40.891Z,0.50
2023-01-02T19:29:30.495Z,0.30
2023-01-02T19:32:28.589Z,0.45
2023-01-02T19:35:05.771Z,0.43
2023-01-02T19:37:40.781Z,0.47
2023-01-02T19:40:18.933Z,0.50
2023-01-02T19:42:50.683Z,0.30
2023-01-02T19:45:20.451Z,0.40
2023-01-02T19:47:49.248Z,0.50
2023-01-02T19:50:25.177Z,0.40
2023-01-02T19:52:52.628Z,0.52
2023-01-02T19:55:19.887Z,0.45
2023-01-02T19:57:47.138Z,0.50
2023-01-02T20:00:16.305Z,0.52
2023-01-02T20:02:45.639Z,0.50
2023-01-02T20:05:20.876Z,0.70
2023-01-02T20:07:48.608Z,0.68
2023-01-02T20:10:15.682Z,0.98
2023-01-02T20:12:42.500Z,0.90
2023-01-02T20:15:17.257Z,0.80
2023-01-02T20:17:44.776Z,0.82
2023-01-02T20:20:15.513Z,0.60
2023-01-02T20:22:43.471Z,0.83
2023-01-02T20:25:13.372Z,0.60
2023-01-02T20:27:40.510Z,0.88
2023-01-02T20:30:08.657Z,0.93
2023-01-02T20:32:35.657Z,0.98
2023-01-02T20:35:02.516Z,0.43
2023-01-02T20:37:30.945Z,0.90
2023-01-02T20:39:58.033Z,0.70
2023-01-02T20:42:25.110Z,0.70
2023-01-02T20:44:51.825Z,0.60
2023-01-02T20:47:19.409Z,0.60
2023-01-02T20:49:46.136Z,0.60
2023-01-02T20:52:12.926Z,0.82
2023-01-02T20:54:40.232Z,0.52
2023-01-02T20:57:06.986Z,0.80
2023-01-02T20:59:33.847Z,0.57
2023-01-02T21:02:00.795Z,0.60
2023-01-02T21:04:34.125Z,0.77
2023-01-02T21:07:04.609Z,0.50
2023-01-02T21:09:31.366Z,0.50
2023-01-02T21:11:58.270Z,0.70
2023-01-02T21:14:25.177Z,0.63
2023-01-02T21:16:51.934Z,0.70
2023-01-02T21:19:18.728Z,0.70
2023-01-02T21:21:46.056Z,1.02
2023-01-02T21:24:12.751Z,0.95
2023-01-02T21:26:39.843Z,0.77
2023-01-02T21:29:06.660Z,0.55
2023-01-02T21:31:34.038Z,0.80
2023-01-02T21:34:00.917Z,0.77
2023-01-02T21:36:28.158Z,1.00
2023-01-02T21:38:55.450Z,0.88
2023-01-02T21:41:41.193Z,0.65
2023-01-02T21:44:08.320Z,0.60
2023-01-02T21:46:35.346Z,0.63
2023-01-02T21:49:02.078Z,0.80
2023-01-02T21:51:32.743Z,0.80
2023-01-02T21:54:00.224Z,1.20
2023-01-02T21:56:27.308Z,0.93
2023-01-02T21:58:55.192Z,1.10
2023-01-02T22:01:22.313Z,1.10
2023-01-02T22:03:49.694Z,1.10
2023-01-02T22:06:18.087Z,1.08
2023-01-02T22:08:44.812Z,1.00
2023-01-02T22:11:30.390Z,1.10
2023-01-02T22:13:57.297Z,1.13
2023-01-02T22:16:24.061Z,0.93
2023-01-02T22:18:50.850Z,1.20
2023-01-02T22:21:17.542Z,0.93
2023-01-02T22:23:44.209Z,1.08
2023-01-02T22:26:11.058Z,1.17
2023-01-02T22:28:37.809Z,1.10
2023-01-02T22:31:05.989Z,1.45
2023-01-02T22:33:34.185Z,1.38
2023-01-02T22:36:00.910Z,1.00
2023-01-02T22:38:27.643Z,1.23
2023-01-02T22:40:55.291Z,1.20
2023-01-02T22:43:24.558Z,1.40
2023-01-02T22:45:53.299Z,1.23
2023-01-02T22:48:27.738Z,1.60
2023-01-02T22:50:57.274Z,1.08
2023-01-02T22:53:28.383Z,1.75
2023-01-02T22:55:55.827Z,1.20
2023-01-02T22:58:22.905Z,1.30
2023-01-02T23:01:01.531Z,1.50
2023-01-02T23:03:37.881Z,1.23
2023-01-02T23:06:04.687Z,1.73
2023-01-02T23:08:31.584Z,1.48
2023-01-02T23:10:59.262Z,1.25
2023-01-02T23:13:26.394Z,1.55
2023-01-02T23:16:12.099Z,1.60
2023-01-02T23:18:58.122Z,1.70
2023-01-02T23:21:26.673Z,1.73
2023-01-02T23:23:53.954Z,1.48
2023-01-02T23:26:22.279Z,1.70
2023-01-02T23:31:44.239Z,1.70
2023-01-02T23:34:13.027Z,1.50
2023-01-02T23:36:40.156Z,1.38
2023-01-02T23:39:08.981Z,1.45
2023-01-02T23:41:35.788Z,1.55
2023-01-02T23:44:02.499Z,1.75
2023-01-02T23:46:29.344Z,1.63
2023-01-02T23:49:03.964Z,1.02
2023-01-02T23:51:31.218Z,1.50
2023-01-02T23:53:59.009Z,1.70
2023-01-02T23:56:29.034Z,1.40
2023-01-02T23:58:57.328Z,1.40
